sensor_id;sensor_type;location;lat;lon;timestamp;P1;durP1;ratioP1;P2;durP2;ratioP2
57889;SDS011;43707;50.184;18.966;2024-01-27T00:01:24;0.60;;;0.20;;
57889;SDS011;43707;50.184;18.966;2024-01-27T00:03:50;0.40;;;0.10;;
57889;SDS011;43707;50.184;18.966;2024-01-27T00:06:15;0.10;;;0.10;;
57889;SDS011;43707;50.184;18.966;2024-01-27T00:08:41;5.00;;;0.10;;
57889;SDS011;43707;50.184;18.966;2024-01-27T00:11:07;3.40;;;0.10;;
57889;SDS011;43707;50.184;18.966;2024-01-27T00:13:32;1.60;;;0.20;;
57889;SDS011;43707;50.184;18.966;2024-01-27T00:15:57;1.10;;;0.30;;
57889;SDS011;43707;50.184;18.966;2024-01-27T00:18:23;1.10;;;0.30;;
57889;SDS011;43707;50.184;18.966;2024-01-27T00:20:49;0.20;;;0.20;;
57889;SDS011;43707;50.184;18.966;2024-01-27T00:23:14;5.70;;;0.40;;
57889;SDS011;43707;50.184;18.966;2024-01-27T00:25:40;0.30;;;0.20;;
57889;SDS011;43707;50.184;18.966;2024-01-27T00:28:05;0.40;;;0.40;;
57889;SDS011;43707;50.184;18.966;2024-01-27T00:30:31;0.40;;;0.30;;
57889;SDS011;43707;50.184;18.966;2024-01-27T00:32:56;1.00;;;0.60;;
57889;SDS011;43707;50.184;18.966;2024-01-27T00:35:22;1.40;;;1.10;;
57889;SDS011;43707;50.184;18.966;2024-01-27T00:37:48;2.40;;;1.30;;
57889;SDS011;43707;50.184;18.966;2024-01-27T00:40:13;2.30;;;1.40;;
57889;SDS011;43707;50.184;18.966;2024-01-27T00:42:39;4.50;;;1.30;;
57889;SDS011;43707;50.184;18.966;2024-01-27T00:45:05;2.70;;;1.30;;
57889;SDS011;43707;50.184;18.966;2024-01-27T00:47:31;2.70;;;1.40;;
57889;SDS011;43707;50.184;18.966;2024-01-27T00:49:57;1.30;;;1.10;;
57889;SDS011;43707;50.184;18.966;2024-01-27T00:52:23;1.50;;;1.30;;
57889;SDS011;43707;50.184;18.966;2024-01-27T00:54:48;1.80;;;1.50;;
57889;SDS011;43707;50.184;18.966;2024-01-27T00:57:14;1.90;;;1.60;;
57889;SDS011;43707;50.184;18.966;2024-01-27T00:59:39;1.40;;;1.20;;
57889;SDS011;43707;50.184;18.966;2024-01-27T01:02:06;2.20;;;1.10;;
57889;SDS011;43707;50.184;18.966;2024-01-27T01:04:32;1.20;;;1.10;;
57889;SDS011;43707;50.184;18.966;2024-01-27T01:06:57;1.10;;;0.80;;
57889;SDS011;43707;50.184;18.966;2024-01-27T01:09:23;8.50;;;0.70;;
57889;SDS011;43707;50.184;18.966;2024-01-27T01:11:48;4.80;;;0.70;;
57889;SDS011;43707;50.184;18.966;2024-01-27T01:14:14;0.40;;;0.30;;
57889;SDS011;43707;50.184;18.966;2024-01-27T01:16:40;0.50;;;0.40;;
57889;SDS011;43707;50.184;18.966;2024-01-27T01:19:06;4.80;;;0.40;;
57889;SDS011;43707;50.184;18.966;2024-01-27T01:21:31;0.80;;;0.40;;
57889;SDS011;43707;50.184;18.966;2024-01-27T01:23:57;0.80;;;0.40;;
57889;SDS011;43707;50.184;18.966;2024-01-27T01:26:22;1.80;;;0.30;;
57889;SDS011;43707;50.184;18.966;2024-01-27T01:28:49;0.60;;;0.20;;
57889;SDS011;43707;50.184;18.966;2024-01-27T01:31:15;0.20;;;0.10;;
57889;SDS011;43707;50.184;18.966;2024-01-27T01:33:41;3.60;;;0.10;;
57889;SDS011;43707;50.184;18.966;2024-01-27T01:36:07;0.30;;;0.20;;
57889;SDS011;43707;50.184;18.966;2024-01-27T01:38:33;1.40;;;0.10;;
57889;SDS011;43707;50.184;18.966;2024-01-27T01:40:58;0.60;;;0.10;;
57889;SDS011;43707;50.184;18.966;2024-01-27T01:43:24;0.10;;;0.10;;
57889;SDS011;43707;50.184;18.966;2024-01-27T01:45:49;2.20;;;0.30;;
57889;SDS011;43707;50.184;18.966;2024-01-27T01:48:15;0.10;;;0.10;;
57889;SDS011;43707;50.184;18.966;2024-01-27T01:50:41;0.10;;;0.10;;
57889;SDS011;43707;50.184;18.966;2024-01-27T01:53:07;0.20;;;0.20;;
57889;SDS011;43707;50.184;18.966;2024-01-27T01:55:33;0.10;;;0.10;;
57889;SDS011;43707;50.184;18.966;2024-01-27T01:57:59;0.10;;;0.10;;
57889;SDS011;43707;50.184;18.966;2024-01-27T02:00:24;0.10;;;0.10;;
57889;SDS011;43707;50.184;18.966;2024-01-27T02:02:50;0.10;;;0.10;;
57889;SDS011;43707;50.184;18.966;2024-01-27T02:05:15;0.20;;;0.10;;
57889;SDS011;43707;50.184;18.966;2024-01-27T02:07:41;0.40;;;0.20;;
57889;SDS011;43707;50.184;18.966;2024-01-27T02:10:13;0.30;;;0.10;;
57889;SDS011;43707;50.184;18.966;2024-01-27T02:12:45;0.10;;;0.10;;
57889;SDS011;43707;50.184;18.966;2024-01-27T02:15:11;0.10;;;0.10;;
57889;SDS011;43707;50.184;18.966;2024-01-27T02:17:40;0.10;;;0.10;;
57889;SDS011;43707;50.184;18.966;2024-01-27T02:20:06;0.00;;;0.00;;
57889;SDS011;43707;50.184;18.966;2024-01-27T02:22:32;0.10;;;0.10;;
57889;SDS011;43707;50.184;18.966;2024-01-27T02:25:04;0.40;;;0.10;;
57889;SDS011;43707;50.184;18.966;2024-01-27T02:27:30;0.30;;;0.10;;
57889;SDS011;43707;50.184;18.966;2024-01-27T02:29:56;0.10;;;0.10;;
57889;SDS011;43707;50.184;18.966;2024-01-27T02:32:21;0.40;;;0.10;;
57889;SDS011;43707;50.184;18.966;2024-01-27T02:34:46;0.10;;;0.10;;
57889;SDS011;43707;50.184;18.966;2024-01-27T02:37:12;0.00;;;0.00;;
57889;SDS011;43707;50.184;18.966;2024-01-27T02:39:37;0.00;;;0.00;;
57889;SDS011;43707;50.184;18.966;2024-01-27T02:42:03;0.00;;;0.00;;
57889;SDS011;43707;50.184;18.966;2024-01-27T02:44:29;0.10;;;0.10;;
57889;SDS011;43707;50.184;18.966;2024-01-27T02:46:54;0.10;;;0.10;;
57889;SDS011;43707;50.184;18.966;2024-01-27T02:49:19;0.10;;;0.10;;
57889;SDS011;43707;50.184;18.966;2024-01-27T02:51:45;0.40;;;0.10;;
57889;SDS011;43707;50.184;18.966;2024-01-27T02:54:10;0.20;;;0.20;;
57889;SDS011;43707;50.184;18.966;2024-01-27T02:56:36;0.10;;;0.10;;
57889;SDS011;43707;50.184;18.966;2024-01-27T02:59:01;0.20;;;0.20;;
57889;SDS011;43707;50.184;18.966;2024-01-27T03:01:27;0.10;;;0.10;;
57889;SDS011;43707;50.184;18.966;2024-01-27T03:03:52;0.10;;;0.10;;
57889;SDS011;43707;50.184;18.966;2024-01-27T03:06:18;0.00;;;0.00;;
57889;SDS011;43707;50.184;18.966;2024-01-27T03:08:43;0.20;;;0.20;;
57889;SDS011;43707;50.184;18.966;2024-01-27T03:11:09;0.10;;;0.10;;
57889;SDS011;43707;50.184;18.966;2024-01-27T03:13:34;0.20;;;0.20;;
57889;SDS011;43707;50.184;18.966;2024-01-27T03:16:00;0.40;;;0.20;;
57889;SDS011;43707;50.184;18.966;2024-01-27T03:18:25;0.10;;;0.10;;
57889;SDS011;43707;50.184;18.966;2024-01-27T03:20:51;0.50;;;0.10;;
57889;SDS011;43707;50.184;18.966;2024-01-27T03:23:16;0.30;;;0.10;;
57889;SDS011;43707;50.184;18.966;2024-01-27T03:25:42;0.10;;;0.10;;
57889;SDS011;43707;50.184;18.966;2024-01-27T03:28:08;0.10;;;0.10;;
57889;SDS011;43707;50.184;18.966;2024-01-27T03:30:33;0.10;;;0.10;;
57889;SDS011;43707;50.184;18.966;2024-01-27T03:32:59;0.20;;;0.10;;
57889;SDS011;43707;50.184;18.966;2024-01-27T03:35:24;0.20;;;0.10;;
57889;SDS011;43707;50.184;18.966;2024-01-27T03:37:49;0.10;;;0.10;;
57889;SDS011;43707;50.184;18.966;2024-01-27T03:40:16;0.30;;;0.30;;
57889;SDS011;43707;50.184;18.966;2024-01-27T03:42:42;0.30;;;0.20;;
57889;SDS011;43707;50.184;18.966;2024-01-27T03:45:08;0.20;;;0.10;;
57889;SDS011;43707;50.184;18.966;2024-01-27T03:47:33;0.20;;;0.20;;
57889;SDS011;43707;50.184;18.966;2024-01-27T03:49:59;0.20;;;0.10;;
57889;SDS011;43707;50.184;18.966;2024-01-27T03:52:24;2.20;;;0.20;;
57889;SDS011;43707;50.184;18.966;2024-01-27T03:54:49;0.20;;;0.20;;
57889;SDS011;43707;50.184;18.966;2024-01-27T03:57:15;0.20;;;0.10;;
57889;SDS011;43707;50.184;18.966;2024-01-27T03:59:41;0.10;;;0.10;;
57889;SDS011;43707;50.184;18.966;2024-01-27T04:02:06;2.00;;;0.00;;
57889;SDS011;43707;50.184;18.966;2024-01-27T04:04:32;0.10;;;0.10;;
57889;SDS011;43707;50.184;18.966;2024-01-27T04:06:57;0.00;;;0.00;;
57889;SDS011;43707;50.184;18.966;2024-01-27T04:09:23;1.40;;;0.10;;
57889;SDS011;43707;50.184;18.966;2024-01-27T04:11:49;0.10;;;0.00;;
57889;SDS011;43707;50.184;18.966;2024-01-27T04:14:14;0.10;;;0.10;;
57889;SDS011;43707;50.184;18.966;2024-01-27T04:16:40;0.10;;;0.00;;
57889;SDS011;43707;50.184;18.966;2024-01-27T04:19:05;0.10;;;0.10;;
57889;SDS011;43707;50.184;18.966;2024-01-27T04:21:31;0.00;;;0.00;;
57889;SDS011;43707;50.184;18.966;2024-01-27T04:23:56;0.00;;;0.00;;
57889;SDS011;43707;50.184;18.966;2024-01-27T04:26:22;0.20;;;0.00;;
57889;SDS011;43707;50.184;18.966;2024-01-27T04:28:47;0.10;;;0.00;;
57889;SDS011;43707;50.184;18.966;2024-01-27T04:31:13;0.10;;;0.10;;
57889;SDS011;43707;50.184;18.966;2024-01-27T04:33:38;0.20;;;0.00;;
57889;SDS011;43707;50.184;18.966;2024-01-27T04:36:04;0.00;;;0.00;;
57889;SDS011;43707;50.184;18.966;2024-01-27T04:38:32;0.10;;;0.10;;
57889;SDS011;43707;50.184;18.966;2024-01-27T04:40:58;1.50;;;0.10;;
57889;SDS011;43707;50.184;18.966;2024-01-27T04:43:23;0.00;;;0.00;;
57889;SDS011;43707;50.184;18.966;2024-01-27T04:45:49;0.10;;;0.10;;
57889;SDS011;43707;50.184;18.966;2024-01-27T04:48:15;0.30;;;0.30;;
57889;SDS011;43707;50.184;18.966;2024-01-27T04:50:40;0.60;;;0.10;;
57889;SDS011;43707;50.184;18.966;2024-01-27T04:53:06;0.10;;;0.10;;
57889;SDS011;43707;50.184;18.966;2024-01-27T04:55:32;0.10;;;0.10;;
57889;SDS011;43707;50.184;18.966;2024-01-27T04:57:57;1.60;;;0.10;;
57889;SDS011;43707;50.184;18.966;2024-01-27T05:00:24;0.00;;;0.00;;
57889;SDS011;43707;50.184;18.966;2024-01-27T05:02:51;0.30;;;0.10;;
57889;SDS011;43707;50.184;18.966;2024-01-27T05:05:17;0.10;;;0.10;;
57889;SDS011;43707;50.184;18.966;2024-01-27T05:07:42;0.30;;;0.10;;
57889;SDS011;43707;50.184;18.966;2024-01-27T05:10:10;0.10;;;0.10;;
57889;SDS011;43707;50.184;18.966;2024-01-27T05:25:27;0.30;;;0.20;;
57889;SDS011;43707;50.184;18.966;2024-01-27T05:27:52;0.20;;;0.20;;
57889;SDS011;43707;50.184;18.966;2024-01-27T05:30:18;3.70;;;0.20;;
57889;SDS011;43707;50.184;18.966;2024-01-27T05:32:43;1.10;;;0.10;;
57889;SDS011;43707;50.184;18.966;2024-01-27T05:35:09;3.60;;;0.20;;
57889;SDS011;43707;50.184;18.966;2024-01-27T05:37:35;1.40;;;0.20;;
57889;SDS011;43707;50.184;18.966;2024-01-27T05:40:01;2.40;;;0.20;;
57889;SDS011;43707;50.184;18.966;2024-01-27T05:42:27;0.40;;;0.30;;
57889;SDS011;43707;50.184;18.966;2024-01-27T05:44:52;0.70;;;0.30;;
57889;SDS011;43707;50.184;18.966;2024-01-27T05:47:17;0.30;;;0.30;;
57889;SDS011;43707;50.184;18.966;2024-01-27T05:49:43;1.10;;;0.30;;
57889;SDS011;43707;50.184;18.966;2024-01-27T05:52:08;0.50;;;0.30;;
57889;SDS011;43707;50.184;18.966;2024-01-27T05:54:34;2.90;;;0.40;;
57889;SDS011;43707;50.184;18.966;2024-01-27T05:56:59;0.60;;;0.30;;
57889;SDS011;43707;50.184;18.966;2024-01-27T05:59:25;3.40;;;0.30;;
57889;SDS011;43707;50.184;18.966;2024-01-27T06:01:51;1.00;;;0.40;;
57889;SDS011;43707;50.184;18.966;2024-01-27T06:04:16;0.80;;;0.30;;
57889;SDS011;43707;50.184;18.966;2024-01-27T06:06:41;1.10;;;0.30;;
57889;SDS011;43707;50.184;18.966;2024-01-27T06:09:07;3.00;;;0.40;;
57889;SDS011;43707;50.184;18.966;2024-01-27T06:11:36;3.60;;;0.50;;
57889;SDS011;43707;50.184;18.966;2024-01-27T06:14:02;0.60;;;0.40;;
57889;SDS011;43707;50.184;18.966;2024-01-27T06:16:28;0.80;;;0.30;;
57889;SDS011;43707;50.184;18.966;2024-01-27T06:18:53;1.10;;;0.30;;
57889;SDS011;43707;50.184;18.966;2024-01-27T06:21:20;0.40;;;0.40;;
57889;SDS011;43707;50.184;18.966;2024-01-27T06:23:46;0.60;;;0.40;;
57889;SDS011;43707;50.184;18.966;2024-01-27T06:26:12;1.10;;;0.30;;
57889;SDS011;43707;50.184;18.966;2024-01-27T06:28:38;0.90;;;0.40;;
57889;SDS011;43707;50.184;18.966;2024-01-27T06:31:04;1.70;;;0.70;;
57889;SDS011;43707;50.184;18.966;2024-01-27T06:33:31;1.10;;;0.30;;
57889;SDS011;43707;50.184;18.966;2024-01-27T06:35:56;1.00;;;0.30;;
57889;SDS011;43707;50.184;18.966;2024-01-27T06:38:22;0.40;;;0.30;;
57889;SDS011;43707;50.184;18.966;2024-01-27T06:40:48;0.70;;;0.40;;
57889;SDS011;43707;50.184;18.966;2024-01-27T06:43:13;2.80;;;0.40;;
57889;SDS011;43707;50.184;18.966;2024-01-27T06:45:39;2.90;;;0.50;;
57889;SDS011;43707;50.184;18.966;2024-01-27T06:48:05;8.00;;;0.50;;
57889;SDS011;43707;50.184;18.966;2024-01-27T06:50:32;3.60;;;0.40;;
57889;SDS011;43707;50.184;18.966;2024-01-27T06:52:57;1.30;;;0.40;;
57889;SDS011;43707;50.184;18.966;2024-01-27T06:55:23;3.30;;;0.70;;
57889;SDS011;43707;50.184;18.966;2024-01-27T06:57:49;0.80;;;0.50;;
57889;SDS011;43707;50.184;18.966;2024-01-27T07:00:14;0.90;;;0.40;;
57889;SDS011;43707;50.184;18.966;2024-01-27T07:02:40;3.10;;;0.60;;
57889;SDS011;43707;50.184;18.966;2024-01-27T07:05:09;2.40;;;0.70;;
57889;SDS011;43707;50.184;18.966;2024-01-27T07:07:35;0.90;;;0.40;;
57889;SDS011;43707;50.184;18.966;2024-01-27T07:10:01;1.20;;;0.40;;
57889;SDS011;43707;50.184;18.966;2024-01-27T07:12:27;10.10;;;1.40;;
57889;SDS011;43707;50.184;18.966;2024-01-27T07:14:52;2.00;;;0.70;;
57889;SDS011;43707;50.184;18.966;2024-01-27T07:17:18;0.70;;;0.40;;
57889;SDS011;43707;50.184;18.966;2024-01-27T07:19:43;1.20;;;0.60;;
57889;SDS011;43707;50.184;18.966;2024-01-27T07:22:09;1.20;;;0.70;;
57889;SDS011;43707;50.184;18.966;2024-01-27T07:24:35;1.20;;;0.60;;
57889;SDS011;43707;50.184;18.966;2024-01-27T07:27:00;4.10;;;0.30;;
57889;SDS011;43707;50.184;18.966;2024-01-27T07:29:26;1.40;;;0.50;;
57889;SDS011;43707;50.184;18.966;2024-01-27T07:31:52;1.90;;;0.30;;
57889;SDS011;43707;50.184;18.966;2024-01-27T07:34:18;0.90;;;0.30;;
57889;SDS011;43707;50.184;18.966;2024-01-27T07:36:44;0.60;;;0.30;;
57889;SDS011;43707;50.184;18.966;2024-01-27T07:39:10;1.50;;;0.20;;
57889;SDS011;43707;50.184;18.966;2024-01-27T07:41:36;0.20;;;0.20;;
57889;SDS011;43707;50.184;18.966;2024-01-27T07:44:08;14.60;;;0.70;;
57889;SDS011;43707;50.184;18.966;2024-01-27T07:46:35;5.10;;;1.10;;
57889;SDS011;43707;50.184;18.966;2024-01-27T07:49:01;11.20;;;0.30;;
57889;SDS011;43707;50.184;18.966;2024-01-27T07:51:28;4.60;;;0.40;;
57889;SDS011;43707;50.184;18.966;2024-01-27T07:53:53;1.30;;;0.30;;
57889;SDS011;43707;50.184;18.966;2024-01-27T07:56:19;0.60;;;0.50;;
57889;SDS011;43707;50.184;18.966;2024-01-27T07:58:44;0.70;;;0.20;;
57889;SDS011;43707;50.184;18.966;2024-01-27T08:01:10;1.80;;;0.50;;
57889;SDS011;43707;50.184;18.966;2024-01-27T08:03:35;0.10;;;0.10;;
57889;SDS011;43707;50.184;18.966;2024-01-27T08:06:04;1.30;;;0.70;;
57889;SDS011;43707;50.184;18.966;2024-01-27T08:08:30;0.10;;;0.10;;
57889;SDS011;43707;50.184;18.966;2024-01-27T08:10:55;0.40;;;0.10;;
57889;SDS011;43707;50.184;18.966;2024-01-27T08:13:21;0.10;;;0.10;;
57889;SDS011;43707;50.184;18.966;2024-01-27T08:15:46;0.20;;;0.10;;
57889;SDS011;43707;50.184;18.966;2024-01-27T08:18:12;0.10;;;0.10;;
57889;SDS011;43707;50.184;18.966;2024-01-27T08:20:37;0.70;;;0.20;;
57889;SDS011;43707;50.184;18.966;2024-01-27T08:23:03;0.10;;;0.10;;
57889;SDS011;43707;50.184;18.966;2024-01-27T08:25:29;0.10;;;0.10;;
57889;SDS011;43707;50.184;18.966;2024-01-27T08:27:54;0.70;;;0.20;;
57889;SDS011;43707;50.184;18.966;2024-01-27T08:30:20;0.20;;;0.20;;
57889;SDS011;43707;50.184;18.966;2024-01-27T08:32:45;0.20;;;0.20;;
57889;SDS011;43707;50.184;18.966;2024-01-27T08:35:11;0.30;;;0.20;;
57889;SDS011;43707;50.184;18.966;2024-01-27T08:37:36;0.10;;;0.10;;
57889;SDS011;43707;50.184;18.966;2024-01-27T08:40:04;0.60;;;0.10;;
57889;SDS011;43707;50.184;18.966;2024-01-27T08:42:32;8.70;;;0.30;;
57889;SDS011;43707;50.184;18.966;2024-01-27T08:44:58;1.30;;;0.20;;
57889;SDS011;43707;50.184;18.966;2024-01-27T08:47:23;0.20;;;0.10;;
57889;SDS011;43707;50.184;18.966;2024-01-27T08:49:49;4.10;;;0.30;;
57889;SDS011;43707;50.184;18.966;2024-01-27T08:52:14;1.00;;;0.10;;
57889;SDS011;43707;50.184;18.966;2024-01-27T08:54:40;0.10;;;0.10;;
57889;SDS011;43707;50.184;18.966;2024-01-27T08:57:06;4.30;;;0.10;;
57889;SDS011;43707;50.184;18.966;2024-01-27T08:59:31;0.10;;;0.10;;
57889;SDS011;43707;50.184;18.966;2024-01-27T09:01:57;0.80;;;0.10;;
57889;SDS011;43707;50.184;18.966;2024-01-27T09:04:22;0.10;;;0.10;;
57889;SDS011;43707;50.184;18.966;2024-01-27T09:06:48;1.50;;;0.10;;
57889;SDS011;43707;50.184;18.966;2024-01-27T09:09:13;0.20;;;0.10;;
57889;SDS011;43707;50.184;18.966;2024-01-27T09:11:39;0.30;;;0.20;;
57889;SDS011;43707;50.184;18.966;2024-01-27T09:14:05;0.20;;;0.20;;
57889;SDS011;43707;50.184;18.966;2024-01-27T09:16:32;0.40;;;0.20;;
57889;SDS011;43707;50.184;18.966;2024-01-27T09:18:57;0.30;;;0.10;;
57889;SDS011;43707;50.184;18.966;2024-01-27T09:21:23;0.20;;;0.10;;
57889;SDS011;43707;50.184;18.966;2024-01-27T09:23:56;0.30;;;0.20;;
57889;SDS011;43707;50.184;18.966;2024-01-27T09:26:22;4.10;;;0.20;;
57889;SDS011;43707;50.184;18.966;2024-01-27T09:28:48;0.20;;;0.20;;
57889;SDS011;43707;50.184;18.966;2024-01-27T09:31:22;0.10;;;0.10;;
57889;SDS011;43707;50.184;18.966;2024-01-27T09:33:49;0.20;;;0.10;;
57889;SDS011;43707;50.184;18.966;2024-01-27T09:36:16;0.20;;;0.20;;
57889;SDS011;43707;50.184;18.966;2024-01-27T09:38:42;0.20;;;0.20;;
57889;SDS011;43707;50.184;18.966;2024-01-27T09:41:08;0.10;;;0.10;;
57889;SDS011;43707;50.184;18.966;2024-01-27T09:43:34;0.10;;;0.10;;
57889;SDS011;43707;50.184;18.966;2024-01-27T09:46:00;0.40;;;0.20;;
57889;SDS011;43707;50.184;18.966;2024-01-27T09:48:27;0.10;;;0.10;;
57889;SDS011;43707;50.184;18.966;2024-01-27T09:50:54;0.80;;;0.10;;
57889;SDS011;43707;50.184;18.966;2024-01-27T09:53:20;0.20;;;0.20;;
57889;SDS011;43707;50.184;18.966;2024-01-27T09:55:45;0.70;;;0.20;;
57889;SDS011;43707;50.184;18.966;2024-01-27T09:58:11;0.20;;;0.20;;
57889;SDS011;43707;50.184;18.966;2024-01-27T10:00:37;1.20;;;0.20;;
57889;SDS011;43707;50.184;18.966;2024-01-27T10:03:04;0.20;;;0.20;;
57889;SDS011;43707;50.184;18.966;2024-01-27T10:05:30;0.10;;;0.10;;
57889;SDS011;43707;50.184;18.966;2024-01-27T10:07:57;0.20;;;0.20;;
57889;SDS011;43707;50.184;18.966;2024-01-27T10:10:22;0.10;;;0.10;;
57889;SDS011;43707;50.184;18.966;2024-01-27T10:12:48;0.40;;;0.20;;
57889;SDS011;43707;50.184;18.966;2024-01-27T10:15:20;0.20;;;0.20;;
57889;SDS011;43707;50.184;18.966;2024-01-27T10:17:46;0.10;;;0.10;;
57889;SDS011;43707;50.184;18.966;2024-01-27T10:20:11;0.50;;;0.30;;
57889;SDS011;43707;50.184;18.966;2024-01-27T10:22:41;0.20;;;0.20;;
57889;SDS011;43707;50.184;18.966;2024-01-27T10:25:07;0.20;;;0.20;;
57889;SDS011;43707;50.184;18.966;2024-01-27T10:27:33;0.70;;;0.30;;
57889;SDS011;43707;50.184;18.966;2024-01-27T10:29:59;0.50;;;0.10;;
57889;SDS011;43707;50.184;18.966;2024-01-27T10:32:24;0.30;;;0.10;;
57889;SDS011;43707;50.184;18.966;2024-01-27T10:35:01;0.50;;;0.30;;
57889;SDS011;43707;50.184;18.966;2024-01-27T10:37:30;2.10;;;0.20;;
57889;SDS011;43707;50.184;18.966;2024-01-27T10:40:05;0.10;;;0.10;;
57889;SDS011;43707;50.184;18.966;2024-01-27T10:42:34;0.30;;;0.30;;
57889;SDS011;43707;50.184;18.966;2024-01-27T10:45:01;0.30;;;0.30;;
57889;SDS011;43707;50.184;18.966;2024-01-27T10:47:27;0.20;;;0.20;;
57889;SDS011;43707;50.184;18.966;2024-01-27T10:49:57;1.30;;;0.30;;
57889;SDS011;43707;50.184;18.966;2024-01-27T10:52:25;0.50;;;0.20;;
57889;SDS011;43707;50.184;18.966;2024-01-27T10:55:04;0.10;;;0.10;;
57889;SDS011;43707;50.184;18.966;2024-01-27T10:57:35;0.30;;;0.20;;
57889;SDS011;43707;50.184;18.966;2024-01-27T11:00:03;1.10;;;0.30;;
57889;SDS011;43707;50.184;18.966;2024-01-27T11:02:34;0.40;;;0.40;;
57889;SDS011;43707;50.184;18.966;2024-01-27T11:05:04;0.40;;;0.20;;
57889;SDS011;43707;50.184;18.966;2024-01-27T11:07:34;0.60;;;0.30;;
57889;SDS011;43707;50.184;18.966;2024-01-27T11:10:00;0.40;;;0.30;;
57889;SDS011;43707;50.184;18.966;2024-01-27T11:12:26;0.30;;;0.20;;
57889;SDS011;43707;50.184;18.966;2024-01-27T11:14:52;0.30;;;0.30;;
57889;SDS011;43707;50.184;18.966;2024-01-27T11:17:21;0.40;;;0.30;;
57889;SDS011;43707;50.184;18.966;2024-01-27T11:19:47;0.30;;;0.30;;
57889;SDS011;43707;50.184;18.966;2024-01-27T11:22:25;0.40;;;0.20;;
57889;SDS011;43707;50.184;18.966;2024-01-27T11:27:37;0.20;;;0.20;;
57889;SDS011;43707;50.184;18.966;2024-01-27T11:30:03;0.40;;;0.40;;
57889;SDS011;43707;50.184;18.966;2024-01-27T11:32:30;0.20;;;0.20;;
57889;SDS011;43707;50.184;18.966;2024-01-27T11:34:56;0.50;;;0.30;;
57889;SDS011;43707;50.184;18.966;2024-01-27T11:37:22;0.70;;;0.40;;
57889;SDS011;43707;50.184;18.966;2024-01-27T11:39:51;0.70;;;0.20;;
57889;SDS011;43707;50.184;18.966;2024-01-27T11:42:17;0.30;;;0.20;;
57889;SDS011;43707;50.184;18.966;2024-01-27T11:44:44;0.90;;;0.30;;
57889;SDS011;43707;50.184;18.966;2024-01-27T11:47:16;0.50;;;0.20;;
57889;SDS011;43707;50.184;18.966;2024-01-27T11:49:51;1.50;;;0.40;;
57889;SDS011;43707;50.184;18.966;2024-01-27T11:52:18;0.30;;;0.30;;
57889;SDS011;43707;50.184;18.966;2024-01-27T11:54:44;0.10;;;0.10;;
57889;SDS011;43707;50.184;18.966;2024-01-27T11:57:09;0.30;;;0.20;;
57889;SDS011;43707;50.184;18.966;2024-01-27T11:59:35;0.10;;;0.10;;
57889;SDS011;43707;50.184;18.966;2024-01-27T12:02:01;0.30;;;0.20;;
57889;SDS011;43707;50.184;18.966;2024-01-27T12:04:27;0.40;;;0.30;;
57889;SDS011;43707;50.184;18.966;2024-01-27T12:06:53;1.70;;;0.20;;
57889;SDS011;43707;50.184;18.966;2024-01-27T12:09:19;5.50;;;0.30;;
57889;SDS011;43707;50.184;18.966;2024-01-27T12:11:45;1.30;;;0.30;;
57889;SDS011;43707;50.184;18.966;2024-01-27T12:14:11;0.20;;;0.20;;
57889;SDS011;43707;50.184;18.966;2024-01-27T12:16:37;0.20;;;0.20;;
57889;SDS011;43707;50.184;18.966;2024-01-27T12:19:03;0.30;;;0.10;;
57889;SDS011;43707;50.184;18.966;2024-01-27T12:21:28;2.60;;;0.20;;
57889;SDS011;43707;50.184;18.966;2024-01-27T12:23:55;1.10;;;0.40;;
57889;SDS011;43707;50.184;18.966;2024-01-27T12:26:22;0.20;;;0.20;;
57889;SDS011;43707;50.184;18.966;2024-01-27T12:28:51;0.10;;;0.10;;
57889;SDS011;43707;50.184;18.966;2024-01-27T12:31:17;0.20;;;0.20;;
57889;SDS011;43707;50.184;18.966;2024-01-27T12:33:49;0.70;;;0.20;;
57889;SDS011;43707;50.184;18.966;2024-01-27T12:36:24;0.40;;;0.20;;
57889;SDS011;43707;50.184;18.966;2024-01-27T12:39:00;0.20;;;0.20;;
57889;SDS011;43707;50.184;18.966;2024-01-27T12:41:27;0.10;;;0.10;;
57889;SDS011;43707;50.184;18.966;2024-01-27T12:43:53;0.10;;;0.10;;
57889;SDS011;43707;50.184;18.966;2024-01-27T12:46:19;0.40;;;0.10;;
57889;SDS011;43707;50.184;18.966;2024-01-27T12:48:45;0.30;;;0.20;;
57889;SDS011;43707;50.184;18.966;2024-01-27T12:51:11;0.80;;;0.20;;
57889;SDS011;43707;50.184;18.966;2024-01-27T12:53:38;0.20;;;0.10;;
57889;SDS011;43707;50.184;18.966;2024-01-27T12:56:07;0.40;;;0.30;;
57889;SDS011;43707;50.184;18.966;2024-01-27T12:58:33;0.50;;;0.20;;
57889;SDS011;43707;50.184;18.966;2024-01-27T13:00:59;0.40;;;0.10;;
57889;SDS011;43707;50.184;18.966;2024-01-27T13:03:25;0.20;;;0.20;;
57889;SDS011;43707;50.184;18.966;2024-01-27T13:05:50;2.20;;;0.30;;
57889;SDS011;43707;50.184;18.966;2024-01-27T13:08:16;0.20;;;0.20;;
57889;SDS011;43707;50.184;18.966;2024-01-27T13:10:41;0.40;;;0.20;;
57889;SDS011;43707;50.184;18.966;2024-01-27T13:13:06;0.20;;;0.20;;
57889;SDS011;43707;50.184;18.966;2024-01-27T13:15:32;0.20;;;0.20;;
57889;SDS011;43707;50.184;18.966;2024-01-27T13:17:57;0.80;;;0.20;;
57889;SDS011;43707;50.184;18.966;2024-01-27T13:20:23;0.10;;;0.10;;
57889;SDS011;43707;50.184;18.966;2024-01-27T13:22:48;0.30;;;0.30;;
57889;SDS011;43707;50.184;18.966;2024-01-27T13:25:14;0.30;;;0.30;;
57889;SDS011;43707;50.184;18.966;2024-01-27T13:27:40;0.40;;;0.20;;
57889;SDS011;43707;50.184;18.966;2024-01-27T13:30:05;0.50;;;0.30;;
57889;SDS011;43707;50.184;18.966;2024-01-27T13:32:32;0.80;;;0.30;;
57889;SDS011;43707;50.184;18.966;2024-01-27T13:34:57;0.30;;;0.20;;
57889;SDS011;43707;50.184;18.966;2024-01-27T13:37:22;0.20;;;0.20;;
57889;SDS011;43707;50.184;18.966;2024-01-27T13:39:48;0.30;;;0.20;;
57889;SDS011;43707;50.184;18.966;2024-01-27T13:42:13;0.60;;;0.30;;
57889;SDS011;43707;50.184;18.966;2024-01-27T13:44:39;0.40;;;0.30;;
57889;SDS011;43707;50.184;18.966;2024-01-27T13:47:04;0.40;;;0.40;;
57889;SDS011;43707;50.184;18.966;2024-01-27T13:49:33;1.70;;;0.20;;
57889;SDS011;43707;50.184;18.966;2024-01-27T13:51:59;0.10;;;0.10;;
57889;SDS011;43707;50.184;18.966;2024-01-27T13:54:24;0.50;;;0.20;;
57889;SDS011;43707;50.184;18.966;2024-01-27T13:56:50;0.20;;;0.20;;
57889;SDS011;43707;50.184;18.966;2024-01-27T13:59:16;0.40;;;0.20;;
57889;SDS011;43707;50.184;18.966;2024-01-27T14:01:41;0.40;;;0.20;;
57889;SDS011;43707;50.184;18.966;2024-01-27T14:04:07;0.50;;;0.20;;
57889;SDS011;43707;50.184;18.966;2024-01-27T14:06:33;0.80;;;0.30;;
57889;SDS011;43707;50.184;18.966;2024-01-27T14:09:00;0.50;;;0.30;;
57889;SDS011;43707;50.184;18.966;2024-01-27T14:11:27;1.40;;;0.30;;
57889;SDS011;43707;50.184;18.966;2024-01-27T14:13:53;0.70;;;0.30;;
57889;SDS011;43707;50.184;18.966;2024-01-27T14:16:18;1.50;;;0.40;;
57889;SDS011;43707;50.184;18.966;2024-01-27T14:18:45;3.50;;;0.20;;
57889;SDS011;43707;50.184;18.966;2024-01-27T14:21:11;0.30;;;0.30;;
57889;SDS011;43707;50.184;18.966;2024-01-27T14:23:36;0.80;;;0.30;;
57889;SDS011;43707;50.184;18.966;2024-01-27T14:26:03;0.90;;;0.30;;
57889;SDS011;43707;50.184;18.966;2024-01-27T14:28:28;0.30;;;0.10;;
57889;SDS011;43707;50.184;18.966;2024-01-27T14:30:54;0.50;;;0.20;;
57889;SDS011;43707;50.184;18.966;2024-01-27T14:33:19;0.30;;;0.20;;
57889;SDS011;43707;50.184;18.966;2024-01-27T14:35:46;0.20;;;0.20;;
57889;SDS011;43707;50.184;18.966;2024-01-27T14:38:12;0.50;;;0.30;;
57889;SDS011;43707;50.184;18.966;2024-01-27T14:40:38;0.30;;;0.30;;
57889;SDS011;43707;50.184;18.966;2024-01-27T14:43:04;0.70;;;0.40;;